Time;durP1;ratioP1;P1;durP2;ratioP2;P2;SDS_P1;SDS_P2;PMS_P1;PMS_P2;Temp;Humidity;BMP_temperature;BMP_pressure;BME280_temperature;BME280_humidity;BME280_pressure;Samples;Min_cycle;Max_cycle;Signal;HPM_P1;HPM_P2
2023/06/27 01:44:29;;;;;;;0.80;0.60;;;;;;;16.37;78.72;98426.80;80073;1300;3013225;-62
2023/06/27 01:46:55;;;;;;;1.60;0.60;;;;;;;16.22;78.76;98430.00;79024;1300;3013838;-60
2023/06/27 01:49:23;;;;;;;0.80;0.60;;;;;;;16.20;78.66;98432.09;79044;1302;3013347;-59
2023/06/27 01:51:55;;;;;;;1.30;0.50;;;;;;;15.96;79.68;98431.98;77730;1304;3052032;-62
2023/06/27 01:54:22;;;;;;;0.70;0.60;;;;;;;15.79;80.58;98440.20;79010;1304;3013187;-62
2023/06/27 01:56:51;;;;;;;1.20;0.80;;;;;;;15.63;80.96;98441.15;76903;1301;3014264;-61
2023/06/27 01:59:17;;;;;;;0.60;0.40;;;;;;;15.54;81.57;98443.45;79193;1299;3019792;-63
2023/06/27 02:01:44;;;;;;;0.70;0.50;;;;;;;15.96;80.59;98437.50;79358;1297;3011504;-62
2023/06/27 02:04:12;;;;;;;0.90;0.50;;;;;;;16.29;78.85;98440.16;77964;1301;3028509;-62
2023/06/27 02:06:41;;;;;;;1.20;0.60;;;;;;;16.34;78.50;98443.93;79292;1297;3012937;-62
2023/06/27 02:09:08;;;;;;;0.80;0.60;;;;;;;16.18;78.78;98450.34;79332;1297;3013560;-62
2023/06/27 02:11:36;;;;;;;0.70;0.50;;;;;;;16.01;79.87;98455.30;78096;1300;3051181;-63
2023/06/27 02:14:02;;;;;;;0.60;0.60;;;;;;;15.89;80.19;98456.28;79302;1298;3013147;-62
2023/06/27 02:16:29;;;;;;;0.60;0.50;;;;;;;15.73;81.08;98455.11;79268;1298;3011598;-59
2023/06/27 02:18:57;;;;;;;0.50;0.50;;;;;;;16.19;79.76;98459.42;78133;1301;3029025;-65
2023/06/27 02:21:26;;;;;;;2.00;0.60;;;;;;;16.44;78.38;98461.37;79352;1301;3011575;-62
2023/06/27 02:23:55;;;;;;;0.70;0.60;;;;;;;16.41;78.19;98459.88;78763;1299;3011946;-63
2023/06/27 02:26:21;;;;;;;0.80;0.50;;;;;;;16.31;77.92;98460.27;79387;1301;3013304;-61
2023/06/27 02:28:48;;;;;;;0.90;0.50;;;;;;;15.91;79.15;98468.46;79387;1297;3011627;-62
2023/06/27 02:31:18;;;;;;;1.40;0.50;;;;;;;15.71;79.81;98466.09;78077;1300;3029562;-64
2023/06/27 02:33:45;;;;;;;0.70;0.70;;;;;;;15.55;80.43;98473.95;79263;1297;3013266;-60
2023/06/27 02:36:12;;;;;;;0.30;0.30;;;;;;;15.53;81.10;98468.48;79341;1299;3011639;-63
2023/06/27 02:38:40;;;;;;;1.70;0.40;;;;;;;16.12;79.46;98460.27;78071;1301;3052276;-65
2023/06/27 02:41:07;;;;;;;0.80;0.40;;;;;;;16.60;76.26;98467.36;79274;1297;3012883;-60
2023/06/27 02:43:34;;;;;;;0.90;0.40;;;;;;;16.58;75.36;98468.52;79196;1301;3013383;-62
2023/06/27 02:46:02;;;;;;;0.40;0.20;;;;;;;16.17;75.76;98477.63;78147;1300;3026414;-64
2023/06/27 02:48:29;;;;;;;0.90;0.40;;;;;;;15.93;77.01;98478.38;79368;1297;3015766;-59
2023/06/27 02:50:56;;;;;;;0.50;0.30;;;;;;;15.81;77.35;98466.49;79446;1297;3011907;-59
2023/06/27 02:53:25;;;;;;;1.50;0.30;;;;;;;15.61;77.51;98464.00;78134;1301;3055044;-60
2023/06/27 02:55:52;;;;;;;0.50;0.30;;;;;;;15.55;77.49;98465.23;79326;1296;3013225;-61
2023/06/27 02:58:19;;;;;;;0.90;0.20;;;;;;;15.49;77.65;98455.97;79339;1300;3011554;-61
2023/06/27 03:00:47;;;;;;;2.20;0.30;;;;;;;16.07;75.95;98456.55;78079;1301;3050149;-59
2023/06/27 03:03:14;;;;;;;0.20;0.20;;;;;;;16.12;73.86;98457.81;79284;1296;3020350;-59
2023/06/27 03:05:41;;;;;;;1.90;0.40;;;;;;;16.06;74.43;98459.09;79187;1299;3013724;-61
2023/06/27 03:08:08;;;;;;;0.50;0.50;;;;;;;15.95;74.71;98460.52;77997;1301;3029058;-62
2023/06/27 03:10:36;;;;;;;0.80;0.60;;;;;;;15.80;75.63;98464.27;79184;1301;3013568;-60
2023/06/27 03:13:03;;;;;;;0.70;0.60;;;;;;;15.59;76.91;98478.31;79287;1295;3011491;-60
2023/06/27 03:15:32;;;;;;;1.70;0.70;;;;;;;15.49;77.77;98472.39;78011;1301;3048848;-61
2023/06/27 03:18:00;;;;;;;0.40;0.40;;;;;;;15.46;77.89;98478.51;79371;1298;3013051;-61
2023/06/27 03:20:26;;;;;;;0.60;0.50;;;;;;;15.89;77.06;98472.91;79325;1298;3011601;-61
2023/06/27 03:22:55;;;;;;;1.20;0.40;;;;;;;16.23;75.44;98467.08;78156;1301;3052847;-60
2023/06/27 03:25:22;;;;;;;0.40;0.40;;;;;;;16.01;75.44;98478.45;79463;1300;3013578;-60
2023/06/27 03:27:48;;;;;;;0.50;0.50;;;;;;;15.80;76.12;98475.27;79270;1298;3013508;-60
2023/06/27 03:30:16;;;;;;;1.40;0.40;;;;;;;15.68;75.97;98464.17;78188;1298;3048677;-58
2023/06/27 03:32:44;;;;;;;0.80;0.40;;;;;;;15.59;75.95;98461.40;79385;1299;3014547;-62
2023/06/27 03:35:11;;;;;;;0.50;0.30;;;;;;;15.43;76.22;98473.67;79263;1297;3011661;-60
2023/06/27 03:37:39;;;;;;;0.30;0.10;;;;;;;15.45;76.37;98470.86;78007;1301;3051918;-59
2023/06/27 03:40:06;;;;;;;0.50;0.20;;;;;;;16.01;74.48;98468.40;79325;1298;3013222;-61
2023/06/27 03:42:34;;;;;;;1.20;0.30;;;;;;;16.28;73.31;98469.80;79331;1302;3011942;-60
2023/06/27 03:45:03;;;;;;;0.30;0.30;;;;;;;16.25;73.23;98471.02;78066;1299;3048883;-62
2023/06/27 03:47:30;;;;;;;2.70;0.20;;;;;;;15.96;73.94;98492.20;79506;1296;3013612;-59
2023/06/27 03:49:56;;;;;;;3.00;0.40;;;;;;;15.82;74.96;98483.84;79319;1299;3011927;-62
2023/06/27 03:52:25;;;;;;;0.30;0.30;;;;;;;15.75;75.56;98486.23;78239;1298;3053013;-61
2023/06/27 03:54:51;;;;;;;0.40;0.30;;;;;;;15.75;75.68;98481.91;79317;1301;3013060;-61
2023/06/27 03:57:18;;;;;;;2.20;0.40;;;;;;;15.66;75.87;98488.25;79223;1297;3011543;-61
2023/06/27 03:59:47;;;;;;;2.10;0.30;;;;;;;15.67;76.45;98484.65;77998;1300;3029094;-61
2023/06/27 04:02:14;;;;;;;0.20;0.20;;;;;;;16.18;75.30;98485.67;79217;1298;3013548;-62
2023/06/27 04:04:42;;;;;;;0.60;0.60;;;;;;;16.50;73.84;98482.31;79272;1301;3011867;-62
2023/06/27 04:07:09;;;;;;;1.10;0.20;;;;;;;16.54;73.21;98485.23;78052;1301;3053698;-62
2023/06/27 04:09:36;;;;;;;0.60;0.40;;;;;;;16.37;73.47;98479.48;79255;1301;3020706;-61
2023/06/27 04:12:05;;;;;;;0.50;0.40;;;;;;;16.27;73.74;98474.86;79331;1296;3011386;-60
2023/06/27 04:14:34;;;;;;;3.00;0.40;;;;;;;16.10;74.44;98479.02;78202;1300;3047957;-61
2023/06/27 04:17:00;;;;;;;1.30;0.60;;;;;;;15.90;75.20;98487.36;79291;1299;3018682;-60
2023/06/27 04:19:27;;;;;;;0.70;0.60;;;;;;;15.80;75.49;98499.23;79311;1301;3011800;-61
2023/06/27 04:21:55;;;;;;;0.80;0.50;;;;;;;15.66;76.43;98486.48;78167;1300;3028550;-61
2023/06/27 04:24:22;;;;;;;0.60;0.30;;;;;;;16.16;75.06;98492.41;79346;1300;3012885;-61
2023/06/27 04:26:49;;;;;;;0.90;0.40;;;;;;;16.67;72.88;98481.48;79284;1296;3012785;-62
2023/06/27 04:29:17;;;;;;;0.50;0.50;;;;;;;16.72;72.00;98482.89;78064;1301;3028071;-61
2023/06/27 04:31:43;;;;;;;0.80;0.50;;;;;;;16.69;72.19;98481.59;79229;1298;3013673;-59
2023/06/27 04:34:10;;;;;;;1.80;0.50;;;;;;;16.56;72.55;98478.80;79252;1301;3011844;-60
2023/06/27 04:36:40;;;;;;;0.70;0.40;;;;;;;16.33;72.02;98488.16;78168;1298;3024835;-61
2023/06/27 04:39:08;;;;;;;1.20;0.70;;;;;;;16.06;72.76;98487.34;79278;1298;3013278;-61
2023/06/27 04:41:37;;;;;;;0.40;0.40;;;;;;;15.99;72.93;98488.44;78793;1297;3013659;-60
2023/06/27 04:44:04;;;;;;;0.70;0.60;;;;;;;15.79;73.08;98484.83;79344;1299;3012993;-60
2023/06/27 04:46:31;;;;;;;1.20;0.80;;;;;;;15.63;73.45;98475.61;79285;1296;3013192;-61
2023/06/27 04:49:00;;;;;;;0.70;0.60;;;;;;;15.61;73.64;98480.03;78054;1298;3050216;-61
2023/06/27 04:51:27;;;;;;;2.40;0.60;;;;;;;15.73;73.38;98472.92;79456;1298;3013194;-60
2023/06/27 04:55:33;;;;;;;1.50;1.30;;;;;;;16.69;69.85;98478.80;80115;1300;3013026;-60
2023/06/27 04:58:00;;;;;;;3.10;2.20;;;;;;;16.79;69.10;98481.10;78884;1306;3013330;-62
2023/06/27 05:00:27;;;;;;;3.90;2.50;;;;;;;16.90;68.98;98476.48;78929;1300;3011764;-58
2023/06/27 05:02:56;;;;;;;3.50;1.70;;;;;;;16.79;68.74;98483.93;77819;1303;3027980;-60
2023/06/27 05:05:23;;;;;;;3.40;1.70;;;;;;;16.71;69.31;98491.35;79160;1301;3013877;-61
2023/06/27 05:07:49;;;;;;;3.50;1.90;;;;;;;16.76;69.17;98482.67;77137;1301;3011965;-61
2023/06/27 05:10:17;;;;;;;3.00;2.00;;;;;;;16.69;69.46;98480.52;78066;1301;3049992;-60
2023/06/27 05:12:44;;;;;;;3.30;1.90;;;;;;;16.69;69.65;98484.03;79181;1297;3012740;-64
2023/06/27 05:15:10;;;;;;;2.60;1.60;;;;;;;16.54;70.33;98482.44;79278;1298;3013208;-60
2023/06/27 05:17:48;;;;;;;2.20;1.70;;;;;;;16.49;70.25;98482.70;78036;1301;3028357;-62
2023/06/27 05:20:17;;;;;;;2.10;1.40;;;;;;;16.52;70.28;98479.82;78112;1298;3068148;-61
2023/06/27 05:22:44;;;;;;;2.30;1.20;;;;;;;16.46;70.50;98484.61;79371;1298;3013335;-62
2023/06/27 05:25:11;;;;;;;2.80;1.90;;;;;;;16.38;70.89;98484.22;79140;1298;3011622;-61
2023/06/27 05:27:39;;;;;;;3.60;1.80;;;;;;;16.43;70.92;98484.09;78017;1298;3052548;-65
2023/06/27 05:30:07;;;;;;;3.80;2.00;;;;;;;16.45;71.03;98484.87;79178;1302;3015852;-60
2023/06/27 05:32:33;;;;;;;3.70;1.70;;;;;;;16.40;71.44;98495.34;79239;1301;3013185;-63
2023/06/27 05:35:02;;;;;;;3.50;1.40;;;;;;;16.87;70.17;98490.02;78068;1298;3070101;-60
2023/06/27 05:37:29;;;;;;;6.10;1.70;;;;;;;17.21;68.64;98494.73;79285;1297;3014970;-59
2023/06/27 05:39:55;;;;;;;2.10;1.80;;;;;;;17.20;68.52;98493.55;79286;1298;3011866;-59
2023/06/27 05:42:24;;;;;;;2.90;1.70;;;;;;;17.04;68.59;98499.79;77975;1300;3053333;-61
2023/06/27 05:44:51;;;;;;;2.00;1.40;;;;;;;16.96;68.99;98497.80;79458;1297;3012908;-63
2023/06/27 05:47:18;;;;;;;2.20;1.50;;;;;;;16.92;69.02;98506.66;79320;1298;3011688;-62
2023/06/27 05:49:47;;;;;;;2.00;1.50;;;;;;;16.84;69.30;98497.95;78047;1298;3026684;-62
2023/06/27 05:52:15;;;;;;;1.90;1.20;;;;;;;16.82;69.71;98502.58;79542;1298;3013362;-64
2023/06/27 05:54:44;;;;;;;1.50;1.40;;;;;;;16.65;69.94;98503.34;79425;1301;3011648;-61
2023/06/27 05:57:12;;;;;;;2.30;1.50;;;;;;;16.58;69.76;98498.75;78074;1301;3054551;-63
2023/06/27 05:59:39;;;;;;;2.10;1.80;;;;;;;16.57;69.83;98508.81;79342;1297;3020746;-63
2023/06/27 06:02:11;;;;;;;1.60;1.30;;;;;;;16.57;69.96;98498.73;79014;1295;3011915;-66
2023/06/27 06:04:37;;;;;;;2.20;1.30;;;;;;;16.55;70.15;98498.59;79372;1299;3019138;-62
2023/06/27 06:07:04;;;;;;;2.50;1.20;;;;;;;16.42;70.99;98502.27;79306;1300;3011857;-64
2023/06/27 06:09:32;;;;;;;3.40;1.60;;;;;;;16.46;70.85;98492.59;78316;1298;3030048;-68
2023/06/27 06:11:59;;;;;;;1.80;1.30;;;;;;;16.57;70.91;98486.27;79394;1294;3018712;-71
2023/06/27 06:14:25;;;;;;;1.10;0.80;;;;;;;16.64;71.07;98487.88;79546;1294;3011556;-69
2023/06/27 06:16:53;;;;;;;2.30;0.90;;;;;;;17.44;69.32;98490.38;78440;1297;3025166;-71
2023/06/27 06:19:20;;;;;;;1.50;1.20;;;;;;;17.87;66.44;98495.23;79533;1300;3020606;-66
2023/06/27 06:21:46;;;;;;;2.30;1.20;;;;;;;17.92;66.12;98490.80;79509;1297;3012035;-69
2023/06/27 06:24:14;;;;;;;2.90;1.40;;;;;;;17.78;66.56;98501.47;78246;1295;3026147;-70
2023/06/27 06:26:40;;;;;;;1.10;1.00;;;;;;;17.60;67.14;98497.38;79480;1296;3012955;-72
2023/06/27 06:29:13;;;;;;;1.50;1.10;;;;;;;17.74;66.83;98490.45;79429;1296;3011687;-71
2023/06/27 06:31:41;;;;;;;2.90;1.30;;;;;;;17.61;67.24;98500.16;78248;1298;3053181;-69
2023/06/27 06:34:10;;;;;;;4.30;1.30;;;;;;;17.36;68.18;98498.71;79534;1294;3013300;-68
2023/06/27 06:36:39;;;;;;;2.80;1.20;;;;;;;17.23;68.57;98497.70;78795;1300;3011606;-68
2023/06/27 06:39:06;;;;;;;2.10;1.60;;;;;;;17.26;67.97;98509.20;79372;1298;3018416;-68
2023/06/27 06:41:33;;;;;;;2.20;1.30;;;;;;;17.18;68.37;98499.48;79434;1297;3011850;-67
2023/06/27 06:44:00;;;;;;;1.40;1.10;;;;;;;17.24;68.67;98501.83;78251;1294;3025006;-71
2023/06/27 06:46:28;;;;;;;2.60;1.50;;;;;;;17.24;68.04;98499.68;79290;1300;3013822;-66
2023/06/27 06:48:54;;;;;;;6.10;2.00;;;;;;;17.17;68.91;98503.59;79642;1294;3011508;-67
2023/06/27 06:51:23;;;;;;;3.60;2.10;;;;;;;17.24;68.81;98506.23;78298;1297;3067812;-66
2023/06/27 06:53:49;;;;;;;9.30;2.90;;;;;;;17.20;68.64;98502.58;79484;1298;3013625;-71
2023/06/27 06:56:20;;;;;;;3.50;2.00;;;;;;;17.20;68.80;98502.77;79110;1294;3013792;-67
2023/06/27 06:58:47;;;;;;;2.90;1.30;;;;;;;17.22;68.50;98505.92;79764;1297;3012598;-73
2023/06/27 07:01:13;;;;;;;3.50;1.60;;;;;;;17.31;67.83;98502.02;79640;1295;3011611;-69
2023/06/27 07:03:43;;;;;;;2.20;1.20;;;;;;;17.28;67.74;98506.55;78401;1297;3055006;-67
2023/06/27 07:06:10;;;;;;;2.90;1.20;;;;;;;17.04;67.67;98502.80;79824;1297;3018882;-68
2023/06/27 07:08:38;;;;;;;3.20;1.30;;;;;;;17.18;67.91;98496.06;79711;1294;3011690;-69
2023/06/27 07:11:07;;;;;;;2.60;1.60;;;;;;;17.35;67.46;98494.87;78614;1296;3056266;-67
2023/06/27 07:13:34;;;;;;;1.80;1.30;;;;;;;17.36;67.00;98500.97;79819;1294;3014763;-68
2023/06/27 07:16:00;;;;;;;2.00;1.40;;;;;;;17.35;67.19;98503.14;79764;1294;3011651;-67
2023/06/27 07:18:29;;;;;;;1.80;1.20;;;;;;;17.39;67.20;98497.24;78427;1294;3052778;-64
2023/06/27 07:20:55;;;;;;;1.40;1.30;;;;;;;17.49;67.14;98495.41;79432;1297;3015796;-63
2023/06/27 07:23:22;;;;;;;2.70;1.40;;;;;;;17.52;67.44;98496.23;79522;1293;3011522;-65
2023/06/27 07:25:49;;;;;;;1.30;1.20;;;;;;;17.58;66.97;98498.30;78330;1294;3025146;-68
2023/06/27 07:28:16;;;;;;;1.30;1.10;;;;;;;17.73;66.46;98497.64;79677;1297;3013506;-65
2023/06/27 07:30:45;;;;;;;3.40;1.20;;;;;;;17.74;66.34;98498.63;79703;1294;3012831;-68
2023/06/27 07:33:13;;;;;;;2.10;1.20;;;;;;;17.62;65.90;98512.75;78563;1297;3052001;-71
2023/06/27 07:35:39;;;;;;;2.20;1.20;;;;;;;17.73;66.05;98508.83;79657;1294;3013746;-63
2023/06/27 07:38:06;;;;;;;1.80;1.20;;;;;;;17.91;65.15;98510.23;79677;1292;3011716;-69
2023/06/27 07:40:34;;;;;;;3.30;1.20;;;;;;;17.91;64.27;98519.00;78638;1294;3026647;-65
2023/06/27 07:43:00;;;;;;;1.20;1.10;;;;;;;17.80;64.55;98509.80;79682;1294;3013709;-67
2023/06/27 07:45:27;;;;;;;3.10;1.30;;;;;;;17.72;65.24;98514.52;79530;1294;3013219;-64
2023/06/27 07:47:55;;;;;;;3.10;1.20;;;;;;;17.85;64.76;98511.21;78492;1296;3029122;-62
2023/06/27 07:50:22;;;;;;;1.60;1.20;;;;;;;18.00;64.60;98508.11;79626;1297;3013211;-64
2023/06/27 07:52:48;;;;;;;2.20;1.50;;;;;;;18.10;64.23;98513.18;79453;1294;3011799;-67
2023/06/27 07:55:16;;;;;;;1.80;1.40;;;;;;;18.26;64.04;98512.92;78346;1294;3027620;-66
2023/06/27 07:57:43;;;;;;;1.90;1.30;;;;;;;18.50;63.30;98510.17;79648;1294;3013504;-65
2023/06/27 08:00:11;;;;;;;2.30;1.30;;;;;;;18.44;62.90;98514.40;79484;1297;3011931;-64
2023/06/27 08:02:42;;;;;;;1.30;1.10;;;;;;;18.44;63.14;98508.19;78261;1297;3051975;-65
2023/06/27 08:05:09;;;;;;;1.90;1.50;;;;;;;18.52;62.34;98513.34;79710;1294;3018906;-64
2023/06/27 08:07:36;;;;;;;3.40;1.20;;;;;;;18.41;62.73;98509.19;79741;1293;3013713;-63
2023/06/27 08:10:05;;;;;;;2.40;1.60;;;;;;;18.64;62.29;98501.36;78281;1296;3026362;-66
2023/06/27 08:12:32;;;;;;;1.40;1.30;;;;;;;18.74;61.97;98503.43;79773;1292;3013348;-70
2023/06/27 08:14:59;;;;;;;3.00;1.50;;;;;;;18.77;61.53;98509.34;79855;1295;3012331;-67
2023/06/27 08:17:26;;;;;;;2.70;1.60;;;;;;;18.90;61.41;98497.10;78470;1297;3051915;-68
2023/06/27 08:19:53;;;;;;;2.90;1.40;;;;;;;18.87;61.75;98494.74;79903;1294;3012746;-69
2023/06/27 08:22:19;;;;;;;2.60;1.60;;;;;;;19.16;60.99;98489.31;79625;1294;3013384;-70
2023/06/27 08:24:47;;;;;;;2.00;1.50;;;;;;;19.14;60.73;98496.77;78530;1296;3027415;-70
2023/06/27 08:27:14;;;;;;;2.80;2.00;;;;;;;19.17;60.15;98493.81;79909;1292;3018525;-67
2023/06/27 08:29:40;;;;;;;3.60;1.90;;;;;;;19.39;60.05;98495.89;79874;1294;3013401;-67
2023/06/27 08:32:08;;;;;;;3.50;2.30;;;;;;;19.55;59.36;98492.02;78515;1296;3027725;-64
2023/06/27 08:34:38;;;;;;;3.40;2.40;;;;;;;19.58;59.15;98491.89;79751;1296;3013212;-72
2023/06/27 08:37:07;;;;;;;9.00;3.10;;;;;;;19.56;58.98;98491.77;79203;1294;3012809;-67
2023/06/27 08:39:34;;;;;;;9.00;3.10;;;;;;;19.65;58.72;98498.02;79703;1294;3013733;-69
2023/06/27 08:42:01;;;;;;;7.00;2.60;;;;;;;19.78;58.52;98491.22;79711;1294;3011706;-70
2023/06/27 08:44:29;;;;;;;5.50;2.60;;;;;;;19.83;58.23;98494.35;78641;1292;3029792;-68
2023/06/27 08:46:56;;;;;;;3.90;2.30;;;;;;;19.71;58.55;98493.25;79527;1297;3013150;-67
2023/06/27 08:49:25;;;;;;;4.60;2.30;;;;;;;19.62;58.93;98492.33;79699;1294;3013416;-69
2023/06/27 08:51:55;;;;;;;2.10;1.70;;;;;;;19.85;58.84;98491.16;78412;1294;3068935;-64
2023/06/27 08:54:34;;;;;;;2.30;1.60;;;;;;;20.00;59.03;98492.58;79722;1295;3011677;-65
2023/06/27 08:57:02;;;;;;;3.90;2.10;;;;;;;20.27;58.34;98490.61;78257;1292;3056438;-67
2023/06/27 08:59:31;;;;;;;3.30;2.00;;;;;;;20.34;56.97;98498.38;79345;1294;3013118;-66
2023/06/27 09:01:58;;;;;;;7.70;1.60;;;;;;;20.49;57.37;98500.30;79484;1294;3011784;-64
2023/06/27 09:04:27;;;;;;;2.20;1.40;;;;;;;20.67;57.27;98497.77;78059;1300;3051857;-71
2023/06/27 09:06:58;;;;;;;3.70;1.90;;;;;;;20.94;56.27;98494.11;79471;1299;3013016;-67
2023/06/27 09:09:28;;;;;;;3.40;2.30;;;;;;;20.95;56.09;98499.35;78280;1300;3069805;-66
2023/06/27 09:12:00;;;;;;;6.70;2.50;;;;;;;20.80;56.54;98502.20;79684;1294;3012168;-67
2023/06/27 09:14:28;;;;;;;3.00;2.50;;;;;;;20.58;56.22;98506.81;78490;1296;3056656;-69
2023/06/27 09:16:55;;;;;;;3.50;1.90;;;;;;;20.83;56.13;98498.66;79745;1295;3021256;-70
2023/06/27 09:19:21;;;;;;;3.30;1.80;;;;;;;20.87;56.33;98500.46;79776;1294;3013649;-73
2023/06/27 09:21:50;;;;;;;2.50;1.80;;;;;;;20.93;56.36;98495.67;78475;1296;3028495;-70
2023/06/27 09:24:21;;;;;;;4.90;1.80;;;;;;;20.98;56.24;98495.60;79741;1294;3013385;-67
2023/06/27 09:26:49;;;;;;;3.70;1.90;;;;;;;21.05;55.06;98497.14;78476;1297;3051118;-64
2023/06/27 09:29:16;;;;;;;3.90;1.70;;;;;;;21.05;54.41;98497.50;79815;1293;3018384;-73
2023/06/27 09:31:43;;;;;;;5.30;2.10;;;;;;;21.24;53.45;98501.55;79682;1295;3011490;-68
2023/06/27 09:34:11;;;;;;;2.70;1.40;;;;;;;21.27;53.54;98497.64;78509;1296;3028717;-69
2023/06/27 09:36:38;;;;;;;3.80;1.40;;;;;;;21.39;53.67;98507.42;79742;1296;3018730;-71
2023/06/27 09:39:09;;;;;;;3.80;1.90;;;;;;;21.57;53.66;98506.34;79873;1292;3013223;-67
2023/06/27 09:41:41;;;;;;;3.40;1.30;;;;;;;21.54;52.70;98513.78;78526;1297;3051872;-64
2023/06/27 09:44:12;;;;;;;4.20;1.80;;;;;;;21.53;52.85;98504.56;79671;1297;3012193;-65
2023/06/27 09:46:41;;;;;;;4.50;1.40;;;;;;;21.42;52.51;98515.67;78437;1297;3049506;-65
2023/06/27 09:49:08;;;;;;;1.50;1.20;;;;;;;21.36;53.11;98517.97;79598;1292;3013506;-67
2023/06/27 09:51:36;;;;;;;2.00;1.30;;;;;;;21.29;53.18;98508.46;79630;1294;3013040;-65
2023/06/27 09:54:04;;;;;;;2.40;1.40;;;;;;;21.46;53.25;98501.92;78279;1300;3052337;-65
2023/06/27 09:56:33;;;;;;;2.80;1.70;;;;;;;21.35;53.67;98511.30;79664;1296;3013695;-65
2023/06/27 09:59:26;;;;;;;5.90;1.70;;;;;;;21.19;54.45;98508.92;79739;1293;3011679;-68
2023/06/27 10:01:54;;;;;;;3.00;1.30;;;;;;;21.10;54.63;98516.60;78403;1295;3050000;-67
2023/06/27 10:04:21;;;;;;;2.90;1.20;;;;;;;21.18;55.01;98510.30;79705;1297;3013451;-69
2023/06/27 10:06:48;;;;;;;3.10;1.90;;;;;;;21.16;54.49;98526.55;79940;1296;3013423;-67
2023/06/27 10:09:16;;;;;;;5.60;2.50;;;;;;;21.11;54.34;98509.02;78558;1297;3029458;-67
2023/06/27 10:11:43;;;;;;;7.90;3.20;;;;;;;21.19;53.96;98515.89;79528;1297;3011618;-67
2023/06/27 10:14:09;;;;;;;5.80;3.10;;;;;;;21.42;53.50;98519.04;79396;1295;3011851;-65
2023/06/27 10:16:38;;;;;;;6.90;3.20;;;;;;;21.49;52.56;98523.66;78267;1299;3048588;-66
2023/06/27 10:19:05;;;;;;;5.00;2.80;;;;;;;21.58;51.07;98522.13;79378;1300;3013671;-65
2023/06/27 10:21:32;;;;;;;5.20;3.10;;;;;;;21.84;51.32;98516.27;79459;1298;3013862;-67
2023/06/27 10:24:00;;;;;;;6.30;2.00;;;;;;;21.81;50.32;98518.98;78419;1297;3026699;-64
2023/06/27 10:26:27;;;;;;;3.40;1.70;;;;;;;21.92;49.68;98523.27;79640;1294;3013618;-67
2023/06/27 10:28:54;;;;;;;5.50;2.50;;;;;;;22.00;49.46;98541.44;79669;1294;3011743;-67
2023/06/27 10:31:45;;;;;;;4.50;2.30;;;;;;;21.75;49.76;98527.11;78410;1297;3048346;-69
2023/06/27 10:34:17;;;;;;;6.00;2.50;;;;;;;21.95;49.87;98526.50;78456;1292;3051963;-70
2023/06/27 10:37:00;;;;;;;5.90;2.40;;;;;;;21.76;49.68;98527.81;79669;1293;3011761;-73
2023/06/27 10:39:34;;;;;;;3.00;1.90;;;;;;;21.94;49.70;98517.15;78518;1297;3052168;-72
2023/06/27 10:42:04;;;;;;;2.60;1.50;;;;;;;22.14;48.65;98533.11;79274;1296;3011980;-78
2023/06/27 10:44:32;;;;;;;5.00;2.30;;;;;;;22.13;49.15;98547.34;79980;1294;3013803;-72
2023/06/27 10:47:29;;;;;;;4.20;1.60;;;;;;;21.94;49.09;98538.34;79516;1294;3011599;-74
2023/06/27 10:50:03;;;;;;;5.40;1.80;;;;;;;21.71;49.13;98547.50;78229;1297;3057797;-65
2023/06/27 10:52:29;;;;;;;3.30;1.50;;;;;;;21.75;49.17;98529.99;79423;1294;3011594;-71
2023/06/27 10:55:15;;;;;;;2.70;1.50;;;;;;;22.06;48.72;98541.46;78497;1294;3054131;-71
2023/06/27 10:57:45;;;;;;;4.50;1.50;;;;;;;22.20;47.84;98537.70;78388;1297;3051600;-72
2023/06/27 11:00:25;;;;;;;2.20;1.40;;;;;;;22.17;47.74;98553.48;80049;1294;3013265;-68
2023/06/27 11:02:55;;;;;;;8.10;1.50;;;;;;;22.18;47.44;98544.34;78316;1300;3068931;-67
2023/06/27 11:05:45;;;;;;;1.90;1.10;;;;;;;22.24;47.62;98541.52;79758;1292;3013711;-68
2023/06/27 11:08:15;;;;;;;4.60;1.50;;;;;;;22.21;47.38;98543.42;78450;1297;3056980;-70
2023/06/27 11:11:09;;;;;;;5.60;1.80;;;;;;;22.21;47.55;98536.34;79851;1292;3011652;-71
2023/06/27 11:13:43;;;;;;;2.70;1.90;;;;;;;22.25;47.74;98534.77;78446;1295;3052681;-73
2023/06/27 11:16:12;;;;;;;5.30;1.40;;;;;;;22.33;47.61;98534.67;79274;1294;3011771;-71
2023/06/27 11:18:38;;;;;;;1.70;1.30;;;;;;;22.49;47.85;98528.80;79510;1300;3019112;-72
2023/06/27 11:21:05;;;;;;;2.10;1.40;;;;;;;22.50;47.11;98547.05;79401;1299;3011866;-70
2023/06/27 11:23:34;;;;;;;2.60;1.20;;;;;;;22.60;47.46;98530.92;78721;1297;3027471;-70
2023/06/27 11:26:00;;;;;;;2.90;1.30;;;;;;;22.85;47.26;98529.98;79734;1294;3019013;-66
2023/06/27 11:28:27;;;;;;;5.30;2.10;;;;;;;22.94;47.19;98534.88;79752;1297;3011513;-67
2023/06/27 11:31:00;;;;;;;5.40;1.50;;;;;;;23.26;46.46;98529.65;78624;1296;3027361;-69
2023/06/27 11:33:27;;;;;;;1.60;1.30;;;;;;;23.30;46.28;98530.95;80293;1295;3011666;-64
2023/06/27 11:35:58;;;;;;;1.20;1.10;;;;;;;23.38;46.24;98535.08;78499;1296;3027821;-66
2023/06/27 11:38:26;;;;;;;2.10;1.20;;;;;;;23.17;46.52;98531.86;79859;1294;3012041;-63
2023/06/27 11:40:54;;;;;;;2.20;1.30;;;;;;;23.20;46.46;98533.74;78636;1296;3026175;-71
2023/06/27 11:43:22;;;;;;;4.10;1.20;;;;;;;23.18;46.48;98529.55;79716;1293;3012977;-65
2023/06/27 11:45:50;;;;;;;2.90;1.20;;;;;;;23.10;46.71;98539.11;79693;1292;3013494;-73
2023/06/27 11:48:18;;;;;;;2.00;1.00;;;;;;;23.02;46.91;98529.94;78751;1295;3052266;-68
2023/06/27 11:51:04;;;;;;;7.00;1.90;;;;;;;23.17;47.23;98531.83;79862;1297;3013315;-66
2023/06/27 11:53:33;;;;;;;6.60;2.80;;;;;;;23.47;46.70;98530.66;78476;1297;3053913;-68
2023/06/27 11:56:00;;;;;;;4.30;2.50;;;;;;;23.39;46.67;98528.16;79778;1297;3011656;-73
2023/06/27 11:58:29;;;;;;;4.60;2.20;;;;;;;23.33;46.85;98522.23;79726;1296;3011429;-71
2023/06/27 12:00:58;;;;;;;2.90;2.00;;;;;;;23.41;47.14;98533.94;78568;1296;3049439;-68
2023/06/27 12:03:30;;;;;;;3.10;1.80;;;;;;;23.67;46.36;98529.64;79759;1295;3012877;-69
2023/06/27 12:05:58;;;;;;;1.60;1.20;;;;;;;23.78;45.82;98529.89;78523;1295;3049385;-69
2023/06/27 12:08:32;;;;;;;1.70;1.20;;;;;;;23.22;46.31;98531.85;79886;1297;3013542;-67
2023/06/27 12:11:02;;;;;;;4.40;1.40;;;;;;;23.20;46.80;98533.08;78373;1297;3069151;-72
2023/06/27 12:13:30;;;;;;;4.10;1.50;;;;;;;23.58;46.15;98525.80;79704;1295;3011550;-71
2023/06/27 12:15:58;;;;;;;1.50;1.20;;;;;;;23.46;45.72;98543.86;78457;1297;3026106;-70
2023/06/27 12:18:28;;;;;;;5.20;1.20;;;;;;;23.16;45.98;98542.98;79565;1294;3013597;-64
2023/06/27 12:20:58;;;;;;;2.30;1.20;;;;;;;22.83;46.72;98543.23;79598;1297;3014024;-74
2023/06/27 12:23:27;;;;;;;3.00;1.50;;;;;;;23.29;46.17;98534.11;79764;1293;3012851;-74
2023/06/27 12:25:56;;;;;;;2.00;1.30;;;;;;;23.72;44.93;98526.84;79278;1296;3013323;-67
2023/06/27 12:28:24;;;;;;;2.30;1.00;;;;;;;23.91;44.12;98529.73;79813;1294;3012981;-67
2023/06/27 12:30:51;;;;;;;3.10;1.40;;;;;;;23.89;43.94;98533.39;79779;1297;3013591;-72
2023/06/27 12:33:19;;;;;;;3.10;1.40;;;;;;;24.05;43.47;98527.61;78339;1294;3056949;-71
2023/06/27 12:35:45;;;;;;;5.40;1.60;;;;;;;24.17;42.68;98526.94;79629;1295;3011881;-70
2023/06/27 12:38:12;;;;;;;1.80;1.40;;;;;;;24.22;42.49;98525.13;79709;1295;3011775;-69
2023/06/27 12:40:40;;;;;;;3.40;1.60;;;;;;;24.40;41.84;98516.23;78443;1297;3027505;-67
2023/06/27 12:43:07;;;;;;;5.00;1.20;;;;;;;24.54;41.44;98519.11;79572;1297;3013035;-65
2023/06/27 12:45:34;;;;;;;5.60;1.70;;;;;;;24.53;41.42;98532.02;79673;1297;3011507;-67
2023/06/27 12:48:02;;;;;;;2.50;1.50;;;;;;;24.09;41.60;98535.35;78458;1296;3027868;-69
2023/06/27 12:50:28;;;;;;;2.20;1.40;;;;;;;23.81;42.02;98533.89;79774;1295;3011831;-66
2023/06/27 12:52:56;;;;;;;3.00;1.40;;;;;;;24.06;41.97;98514.79;79897;1294;3011636;-68
2023/06/27 12:55:24;;;;;;;4.90;1.30;;;;;;;24.36;41.28;98521.35;78821;1294;3025288;-69
2023/06/27 12:57:51;;;;;;;4.80;1.80;;;;;;;24.40;40.88;98522.46;79864;1294;3012841;-67
2023/06/27 13:00:20;;;;;;;3.50;1.70;;;;;;;24.09;40.83;98533.65;79752;1296;3011945;-70
2023/06/27 13:02:49;;;;;;;4.70;1.60;;;;;;;24.01;41.00;98542.10;78608;1291;3056846;-64
2023/06/27 13:05:15;;;;;;;3.30;1.60;;;;;;;24.29;40.63;98517.50;79910;1291;3013779;-66
2023/06/27 13:07:42;;;;;;;3.50;1.40;;;;;;;24.60;40.37;98524.59;79838;1291;3011573;-66